Time;durP1;ratioP1;P1;durP2;ratioP2;P2;SDS_P1;SDS_P2;PMS_P1;PMS_P2;Temp;Humidity;BMP_temperature;BMP_pressure;BME280_temperature;BME280_humidity;BME280_pressure;Samples;Min_cycle;Max_cycle;Signal;HPM_P1;HPM_P2
2021/10/11 00:00:32;;;;;;;1.23;1.13;;;10.30;99.90;;;;;;5062582;28;20047;-79
2021/10/11 00:02:57;;;;;;;0.85;0.82;;;10.30;99.90;;;;;;5051153;28;20391;-79
2021/10/11 00:05:23;;;;;;;0.90;0.77;;;10.20;99.90;;;;;;5063066;28;20371;-79
2021/10/11 00:07:49;;;;;;;0.77;0.77;;;10.20;99.90;;;;;;5044662;28;20032;-79
2021/10/11 00:10:19;;;;;;;2.15;1.10;;;10.20;99.90;;;;;;5046169;28;20037;-79
2021/10/11 00:12:49;;;;;;;3.47;1.70;;;10.30;99.90;;;;;;5065949;28;20355;-80
2021/10/11 00:15:16;;;;;;;3.28;1.48;;;10.30;99.90;;;;;;5079950;28;20548;-80
2021/10/11 00:17:43;;;;;;;1.42;1.30;;;10.40;99.90;;;;;;5048197;28;20550;-81
2021/10/11 00:20:10;;;;;;;3.00;1.30;;;10.50;99.90;;;;;;5061635;28;20041;-81
2021/10/11 00:22:35;;;;;;;0.88;0.88;;;10.50;99.90;;;;;;5062775;28;20658;-80
2021/10/11 00:25:04;;;;;;;1.20;1.10;;;10.60;99.90;;;;;;5062566;28;20127;-81
2021/10/11 00:27:30;;;;;;;2.47;1.60;;;10.60;99.90;;;;;;5046640;28;20056;-80
2021/10/11 00:29:56;;;;;;;2.13;1.38;;;10.60;99.90;;;;;;5048900;28;20128;-78
2021/10/11 00:32:22;;;;;;;1.38;1.23;;;10.70;99.90;;;;;;5049413;28;20111;-79
2021/10/11 00:34:47;;;;;;;0.98;0.88;;;10.60;99.90;;;;;;5057927;28;20049;-80
2021/10/11 00:37:13;;;;;;;1.23;1.13;;;10.70;99.90;;;;;;5060330;28;20040;-80
2021/10/11 00:39:39;;;;;;;5.10;1.30;;;10.60;99.90;;;;;;5060147;28;20076;-79
2021/10/11 00:42:04;;;;;;;2.22;1.23;;;10.50;99.90;;;;;;5061862;28;20393;-80
2021/10/11 00:44:30;;;;;;;1.40;1.00;;;10.50;99.90;;;;;;5048594;28;20049;-79
2021/10/11 00:46:56;;;;;;;3.55;1.35;;;10.50;99.90;;;;;;5066868;28;20041;-79
2021/10/11 00:49:22;;;;;;;0.88;0.85;;;10.40;99.90;;;;;;5062169;28;20040;-78
2021/10/11 00:51:48;;;;;;;0.80;0.80;;;10.40;99.90;;;;;;5067358;28;20044;-79
2021/10/11 00:54:20;;;;;;;3.10;1.55;;;10.30;99.90;;;;;;5050424;28;20044;-80
2021/10/11 00:56:45;;;;;;;;;;;10.30;99.90;;;;;;5044139;28;20367;-80
2021/10/11 00:59:11;;;;;;;0.90;0.90;;;10.20;99.90;;;;;;5051405;28;19923;-79
2021/10/11 01:01:37;;;;;;;0.90;0.90;;;10.20;99.90;;;;;;5055145;28;20072;-79
2021/10/11 01:04:07;;;;;;;4.05;1.42;;;10.20;99.90;;;;;;5063584;28;20095;-79
2021/10/11 01:06:37;;;;;;;0.85;0.82;;;10.10;99.90;;;;;;5057601;28;20424;-80
2021/10/11 01:09:05;;;;;;;2.08;1.40;;;10.10;99.90;;;;;;5057867;28;20033;-80
2021/10/11 01:11:30;;;;;;;1.00;0.90;;;10.10;99.90;;;;;;5055149;28;20047;-79
2021/10/11 01:13:56;;;;;;;8.60;1.33;;;10.00;99.90;;;;;;5066547;28;20111;-80
2021/10/11 01:16:22;;;;;;;1.33;1.10;;;10.00;99.90;;;;;;5076603;28;20478;-80
2021/10/11 01:18:47;;;;;;;3.65;1.65;;;10.00;99.90;;;;;;5062896;28;20044;-80
2021/10/11 01:21:13;;;;;;;3.25;0.95;;;10.00;99.90;;;;;;5065225;28;20436;-80
2021/10/11 01:23:39;;;;;;;4.70;1.27;;;9.90;99.90;;;;;;5066121;28;20040;-80
2021/10/11 01:26:05;;;;;;;1.83;0.82;;;9.90;99.90;;;;;;5054110;28;20500;-80
2021/10/11 01:28:30;;;;;;;1.42;0.73;;;9.90;99.90;;;;;;5042288;28;20052;-80
2021/10/11 01:30:56;;;;;;;1.23;0.77;;;9.90;99.90;;;;;;5065470;28;20078;-80
2021/10/11 01:33:22;;;;;;;0.60;0.60;;;9.90;99.90;;;;;;5064236;28;20072;-80
2021/10/11 01:35:48;;;;;;;1.42;1.15;;;9.90;99.90;;;;;;5055238;28;20126;-80
2021/10/11 01:38:14;;;;;;;2.85;0.90;;;9.80;99.90;;;;;;5066195;28;20051;-79
2021/10/11 01:40:40;;;;;;;1.25;1.15;;;9.80;99.90;;;;;;5057857;28;20047;-80
2021/10/11 01:43:08;;;;;;;1.15;1.00;;;9.80;99.90;;;;;;5059372;28;20044;-81
2021/10/11 01:45:35;;;;;;;5.70;1.67;;;9.70;99.90;;;;;;5057087;28;20119;-81
2021/10/11 01:48:01;;;;;;;1.40;1.02;;;9.60;99.90;;;;;;5046853;28;20540;-80
2021/10/11 01:50:27;;;;;;;1.83;1.27;;;9.50;99.90;;;;;;5065589;28;20436;-80
2021/10/11 01:52:53;;;;;;;0.93;0.93;;;9.50;99.90;;;;;;5065277;28;20033;-80
2021/10/11 01:55:19;;;;;;;0.80;0.80;;;9.30;99.90;;;;;;5080628;28;20048;-80
2021/10/11 01:57:44;;;;;;;2.63;0.90;;;9.40;99.90;;;;;;5076020;28;20059;-80
2021/10/11 02:00:10;;;;;;;1.42;0.90;;;9.40;99.90;;;;;;5061522;28;20498;-79
2021/10/11 02:02:36;;;;;;;;;;;9.40;99.90;;;;;;5062065;28;20139;-80
2021/10/11 02:05:03;;;;;;;1.27;1.17;;;9.40;99.90;;;;;;5064675;28;19921;-80
2021/10/11 02:07:29;;;;;;;1.42;0.93;;;9.30;99.90;;;;;;5062543;28;20043;-80
2021/10/11 02:09:54;;;;;;;5.22;1.90;;;9.30;99.90;;;;;;5069028;28;20040;-80
2021/10/11 02:12:20;;;;;;;7.53;2.28;;;9.30;99.90;;;;;;5044257;28;20037;-79
2021/10/11 02:14:48;;;;;;;1.13;1.02;;;9.30;99.90;;;;;;5068764;28;20032;-80
2021/10/11 02:17:14;;;;;;;1.10;1.02;;;9.20;99.90;;;;;;5066325;28;20424;-80
2021/10/11 02:19:40;;;;;;;2.85;0.93;;;9.10;99.90;;;;;;5049502;28;20048;-80
2021/10/11 02:22:06;;;;;;;2.00;1.10;;;9.10;99.90;;;;;;5052668;28;20450;-80
2021/10/11 02:24:32;;;;;;;0.60;0.60;;;9.10;99.90;;;;;;5062849;28;20071;-80
2021/10/11 02:26:58;;;;;;;0.80;0.80;;;9.00;99.90;;;;;;5051166;28;20194;-81
2021/10/11 02:29:25;;;;;;;2.97;0.80;;;9.00;99.90;;;;;;5070446;28;20044;-80
2021/10/11 02:31:51;;;;;;;0.60;0.60;;;8.90;99.90;;;;;;5062206;28;20037;-81
2021/10/11 02:34:17;;;;;;;1.38;0.93;;;9.00;99.90;;;;;;5070227;28;20055;-80
2021/10/11 02:36:43;;;;;;;0.75;0.68;;;9.00;99.90;;;;;;5064375;28;20120;-80
2021/10/11 02:39:09;;;;;;;4.18;2.00;;;9.00;99.90;;;;;;5062488;28;20182;-80
2021/10/11 02:41:35;;;;;;;1.20;1.08;;;9.10;99.90;;;;;;5064941;28;20047;-79
2021/10/11 02:44:00;;;;;;;0.70;0.70;;;9.10;99.90;;;;;;5055813;28;20480;-80
2021/10/11 02:46:26;;;;;;;1.27;1.00;;;9.10;99.90;;;;;;5048977;28;20036;-80
2021/10/11 02:48:52;;;;;;;0.63;0.63;;;9.10;99.90;;;;;;5053462;28;20044;-79
2021/10/11 02:51:18;;;;;;;0.95;0.82;;;9.20;99.90;;;;;;5046552;28;20127;-81
2021/10/11 02:53:49;;;;;;;1.30;1.20;;;9.20;99.90;;;;;;5069240;28;20040;-80
2021/10/11 02:56:16;;;;;;;0.60;0.60;;;9.40;99.90;;;;;;5054662;28;20076;-80
2021/10/11 02:58:41;;;;;;;0.90;0.90;;;9.40;99.90;;;;;;5064102;28;20072;-79
2021/10/11 03:01:07;;;;;;;3.40;1.30;;;9.50;99.90;;;;;;5056031;28;20397;-79
2021/10/11 03:03:33;;;;;;;1.58;0.95;;;9.60;99.90;;;;;;5067698;28;20044;-80
2021/10/11 03:05:58;;;;;;;0.60;0.60;;;9.70;99.90;;;;;;5062531;28;20040;-80
2021/10/11 03:08:24;;;;;;;1.42;0.95;;;9.70;99.90;;;;;;5064768;28;20485;-80
2021/10/11 03:10:50;;;;;;;1.00;1.00;;;9.80;99.90;;;;;;5032536;28;20049;-79
2021/10/11 03:13:15;;;;;;;0.70;0.70;;;9.80;99.90;;;;;;5066971;28;20037;-81
2021/10/11 03:15:41;;;;;;;1.05;0.98;;;9.80;99.90;;;;;;5069055;28;20076;-80
2021/10/11 03:18:07;;;;;;;1.27;1.17;;;9.80;99.90;;;;;;5035497;28;20044;-79
2021/10/11 03:20:32;;;;;;;0.70;0.70;;;9.70;99.90;;;;;;5061957;28;20102;-79
2021/10/11 03:22:58;;;;;;;2.25;1.55;;;9.90;99.90;;;;;;5042523;28;20093;-80
2021/10/11 03:25:24;;;;;;;0.80;0.80;;;9.80;99.90;;;;;;5018291;28;20052;-79
2021/10/11 03:27:50;;;;;;;2.85;1.17;;;9.90;99.90;;;;;;5054828;28;20045;-80
2021/10/11 03:30:16;;;;;;;10.35;1.88;;;9.90;99.90;;;;;;5046910;28;20049;-79
2021/10/11 03:32:41;;;;;;;1.60;0.95;;;9.90;99.90;;;;;;5050649;28;20059;-80
2021/10/11 03:35:07;;;;;;;1.10;1.00;;;9.90;99.90;;;;;;5057539;28;20482;-80
2021/10/11 03:37:33;;;;;;;4.57;1.30;;;9.90;99.90;;;;;;5066775;28;20068;-81
2021/10/11 03:39:59;;;;;;;1.02;0.88;;;10.00;99.90;;;;;;5066178;28;20040;-80
2021/10/11 03:42:24;;;;;;;1.95;1.02;;;10.00;99.90;;;;;;5049527;28;20051;-81
2021/10/11 03:44:50;;;;;;;2.15;1.08;;;10.10;99.90;;;;;;5064369;28;20044;-80
2021/10/11 03:47:16;;;;;;;0.60;0.60;;;10.10;99.90;;;;;;5044185;28;20486;-80
2021/10/11 03:49:42;;;;;;;1.35;0.98;;;10.10;99.90;;;;;;5033744;28;20041;-80
2021/10/11 03:52:08;;;;;;;0.95;0.93;;;10.00;99.90;;;;;;5049613;28;20029;-80
2021/10/11 03:54:33;;;;;;;8.52;1.42;;;10.00;99.90;;;;;;5062202;28;20044;-80
2021/10/11 03:56:59;;;;;;;0.70;0.70;;;9.90;99.90;;;;;;5051307;28;20039;-80
2021/10/11 03:59:25;;;;;;;1.98;1.05;;;9.80;99.90;;;;;;5061504;28;20052;-78
2021/10/11 04:01:50;;;;;;;4.90;0.90;;;9.80;99.90;;;;;;5032176;28;20505;-80
2021/10/11 04:04:17;;;;;;;1.67;0.90;;;9.70;99.90;;;;;;5070684;28;20087;-80
2021/10/11 04:06:43;;;;;;;0.60;0.60;;;9.70;99.90;;;;;;5054810;28;20040;-79
2021/10/11 04:09:09;;;;;;;;;;;9.60;99.90;;;;;;5068408;28;20086;-79
2021/10/11 04:11:34;;;;;;;0.82;0.82;;;9.60;99.90;;;;;;5035099;28;19917;-81
2021/10/11 04:14:00;;;;;;;0.60;0.60;;;9.50;99.90;;;;;;5069855;28;20123;-80
2021/10/11 04:16:26;;;;;;;0.70;0.70;;;9.50;99.90;;;;;;5042774;28;20075;-80
2021/10/11 04:18:52;;;;;;;1.75;0.80;;;9.50;99.90;;;;;;5053950;28;20044;-81
2021/10/11 04:21:17;;;;;;;2.53;1.52;;;9.50;99.90;;;;;;5047130;28;20119;-81
2021/10/11 04:23:43;;;;;;;0.70;0.70;;;9.50;99.90;;;;;;5043306;28;20036;-80
2021/10/11 04:26:09;;;;;;;0.90;0.90;;;9.50;99.90;;;;;;5058765;28;20067;-81
2021/10/11 04:28:35;;;;;;;1.27;1.17;;;9.50;99.90;;;;;;5065871;28;20044;-80
2021/10/11 04:31:02;;;;;;;3.05;1.42;;;9.40;99.90;;;;;;5053288;28;20041;-80
2021/10/11 04:33:27;;;;;;;2.55;1.00;;;9.40;99.90;;;;;;5033756;28;20120;-80
2021/10/11 04:35:53;;;;;;;3.85;1.42;;;9.30;99.90;;;;;;5049640;28;20175;-80
2021/10/11 04:38:25;;;;;;;2.05;1.50;;;9.30;99.90;;;;;;5054088;28;20052;-80
2021/10/11 04:40:51;;;;;;;2.92;1.00;;;9.30;99.90;;;;;;5055179;28;20406;-80
2021/10/11 04:43:16;;;;;;;0.85;0.85;;;9.30;99.90;;;;;;5047610;28;20450;-81
2021/10/11 04:45:42;;;;;;;0.70;0.70;;;9.30;99.90;;;;;;5038006;28;20359;-80
2021/10/11 04:48:10;;;;;;;1.25;1.10;;;9.30;99.90;;;;;;5032684;28;20035;-79
2021/10/11 04:50:37;;;;;;;1.55;1.25;;;9.30;99.90;;;;;;5052189;28;20036;-80
2021/10/11 04:53:04;;;;;;;1.42;1.05;;;9.30;99.90;;;;;;5047054;28;20040;-82
2021/10/11 04:55:31;;;;;;;0.95;0.95;;;9.30;99.90;;;;;;5057489;28;20045;-85
2021/10/11 04:57:58;;;;;;;0.70;0.70;;;9.30;99.90;;;;;;5044400;28;20051;-84
2021/10/11 05:00:24;;;;;;;0.80;0.80;;;9.30;99.90;;;;;;5049635;28;20103;-85
2021/10/11 05:02:49;;;;;;;1.60;1.15;;;9.30;99.90;;;;;;5065760;28;20458;-83
2021/10/11 05:05:15;;;;;;;1.75;1.48;;;9.30;99.90;;;;;;5051278;28;20133;-84
2021/10/11 05:07:41;;;;;;;1.67;0.98;;;9.40;99.90;;;;;;5045240;28;20036;-80
2021/10/11 05:10:13;;;;;;;5.53;1.38;;;9.40;99.90;;;;;;5058416;28;20778;-82
2021/10/11 05:12:38;;;;;;;3.10;1.35;;;9.50;99.90;;;;;;5056129;28;20076;-80
2021/10/11 05:15:05;;;;;;;1.75;1.00;;;9.50;99.90;;;;;;5057283;28;20068;-80
2021/10/11 05:17:31;;;;;;;0.60;0.60;;;9.50;99.90;;;;;;5052311;28;20047;-84
2021/10/11 05:19:56;;;;;;;1.10;1.00;;;9.50;99.90;;;;;;5045629;28;20036;-83
2021/10/11 05:22:22;;;;;;;3.25;0.95;;;9.40;99.90;;;;;;5049602;28;20048;-83
2021/10/11 05:24:49;;;;;;;14.25;0.95;;;9.40;99.90;;;;;;5043921;28;20041;-83
2021/10/11 05:27:15;;;;;;;1.13;1.00;;;9.40;99.90;;;;;;5062351;28;20048;-82
2021/10/11 05:29:40;;;;;;;3.85;1.55;;;9.40;99.90;;;;;;5058426;28;20040;-83
2021/10/11 05:32:08;;;;;;;1.80;1.33;;;9.40;99.90;;;;;;5059079;28;20041;-82
2021/10/11 05:34:33;;;;;;;1.20;1.10;;;9.40;99.90;;;;;;5058207;28;20041;-82
2021/10/11 05:37:00;;;;;;;0.60;0.60;;;9.40;99.90;;;;;;5052330;28;20144;-84
2021/10/11 05:39:25;;;;;;;2.55;1.30;;;9.40;99.90;;;;;;5056986;28;20040;-81
2021/10/11 05:41:51;;;;;;;3.17;1.20;;;9.50;99.90;;;;;;5062191;28;20079;-83
2021/10/11 05:44:17;;;;;;;7.97;2.30;;;9.40;99.90;;;;;;5056547;28;20047;-83
2021/10/11 05:46:43;;;;;;;0.73;0.73;;;9.40;99.90;;;;;;5049790;28;20041;-84
2021/10/11 05:49:09;;;;;;;0.93;0.93;;;9.70;99.90;;;;;;5051595;28;20688;-85
2021/10/11 05:51:35;;;;;;;0.55;0.55;;;9.40;99.90;;;;;;5072098;28;20040;-81
2021/10/11 05:54:00;;;;;;;5.03;1.63;;;9.40;99.90;;;;;;5069305;28;20029;-82
2021/10/11 05:56:26;;;;;;;0.80;0.80;;;9.30;99.90;;;;;;5042071;28;20037;-83
2021/10/11 05:58:52;;;;;;;1.65;0.95;;;9.30;99.90;;;;;;5054245;28;20149;-81
2021/10/11 06:01:18;;;;;;;1.55;0.90;;;9.40;99.90;;;;;;5060586;28;20429;-82
2021/10/11 06:03:44;;;;;;;1.50;1.27;;;9.30;99.90;;;;;;5058198;28;20075;-83
2021/10/11 06:06:09;;;;;;;4.40;1.33;;;9.20;99.90;;;;;;5044992;28;20056;-83
2021/10/11 06:08:35;;;;;;;0.52;0.52;;;9.10;99.90;;;;;;5060088;28;20481;-85
2021/10/11 06:11:01;;;;;;;0.77;0.77;;;9.20;99.90;;;;;;5058131;28;20040;-84
2021/10/11 06:13:26;;;;;;;9.45;1.10;;;9.20;99.90;;;;;;5053730;28;20036;-80
2021/10/11 06:15:53;;;;;;;0.90;0.90;;;9.20;99.90;;;;;;5066693;28;20036;-83
2021/10/11 06:18:18;;;;;;;;;;;9.20;99.90;;;;;;5056549;28;20049;-83
2021/10/11 06:20:44;;;;;;;1.25;1.15;;;9.20;99.90;;;;;;5037857;28;19920;-83
2021/10/11 06:23:11;;;;;;;1.27;1.20;;;9.20;99.90;;;;;;5050502;28;20486;-82
2021/10/11 06:25:37;;;;;;;0.90;0.90;;;9.20;99.90;;;;;;5058147;28;20048;-83
2021/10/11 06:28:03;;;;;;;2.97;1.38;;;9.20;99.90;;;;;;5064838;28;20048;-84
2021/10/11 06:30:29;;;;;;;0.80;0.80;;;9.10;99.90;;;;;;5066400;28;20064;-84
2021/10/11 06:32:54;;;;;;;5.93;1.70;;;9.10;99.90;;;;;;5059008;28;20555;-83
2021/10/11 06:35:20;;;;;;;2.03;1.10;;;9.10;99.90;;;;;;5067837;28;20049;-82
2021/10/11 06:37:46;;;;;;;0.90;0.90;;;9.10;99.90;;;;;;5074113;28;20055;-82
2021/10/11 06:40:12;;;;;;;1.50;1.40;;;9.10;99.90;;;;;;5071953;28;20105;-81
2021/10/11 06:42:37;;;;;;;3.22;1.45;;;9.10;99.90;;;;;;5053576;28;20420;-82
2021/10/11 06:45:04;;;;;;;3.03;0.90;;;9.10;99.90;;;;;;5039330;28;20448;-84
2021/10/11 06:47:32;;;;;;;0.98;0.98;;;9.10;99.90;;;;;;5044586;28;20045;-83
2021/10/11 06:49:57;;;;;;;0.82;0.82;;;9.20;99.90;;;;;;5056654;28;20171;-83
2021/10/11 06:52:23;;;;;;;4.30;1.15;;;9.20;99.90;;;;;;5064681;28;20456;-83
2021/10/11 06:54:49;;;;;;;1.58;1.48;;;9.30;99.90;;;;;;5052148;28;20048;-83
2021/10/11 06:57:14;;;;;;;1.48;1.38;;;9.30;99.90;;;;;;5036362;28;20049;-81
2021/10/11 06:59:42;;;;;;;9.00;1.55;;;9.40;99.90;;;;;;5064654;28;20096;-84
2021/10/11 07:02:09;;;;;;;1.30;1.17;;;9.50;99.90;;;;;;5079025;28;20055;-82
2021/10/11 07:04:35;;;;;;;0.80;0.80;;;9.60;99.90;;;;;;5059571;28;20041;-81
2021/10/11 07:07:01;;;;;;;0.90;0.80;;;9.80;99.90;;;;;;5053421;28;20551;-85
2021/10/11 07:09:27;;;;;;;;;;;9.90;99.90;;;;;;5063976;28;20486;-83
2021/10/11 07:11:52;;;;;;;0.95;0.80;;;10.00;99.90;;;;;;5063437;28;19920;-83
2021/10/11 07:14:18;;;;;;;0.82;0.80;;;10.20;99.90;;;;;;5066508;28;20119;-82
2021/10/11 07:16:45;;;;;;;4.38;1.50;;;10.30;99.90;;;;;;5021998;28;20132;-83
2021/10/11 07:19:15;;;;;;;1.77;1.00;;;10.40;99.90;;;;;;5039012;28;20120;-82
2021/10/11 07:21:41;;;;;;;1.85;1.20;;;10.50;99.90;;;;;;5048478;28;20044;-83
2021/10/11 07:24:08;;;;;;;1.42;1.13;;;10.60;99.90;;;;;;5085210;28;20068;-84
2021/10/11 07:26:33;;;;;;;;;;;10.70;99.90;;;;;;5061583;28;20046;-81
2021/10/11 07:28:59;;;;;;;3.88;1.40;;;10.80;99.90;;;;;;5048457;28;20364;-83
2021/10/11 07:31:25;;;;;;;1.75;0.80;;;10.80;99.90;;;;;;5064895;28;20463;-80
2021/10/11 07:33:51;;;;;;;3.13;0.80;;;10.90;99.90;;;;;;5055516;28;20044;-83
2021/10/11 07:36:16;;;;;;;1.13;1.02;;;11.00;99.90;;;;;;5055919;28;20109;-80
2021/10/11 07:38:42;;;;;;;1.05;1.02;;;11.00;99.90;;;;;;5053998;28;20059;-80
2021/10/11 07:41:08;;;;;;;1.08;1.08;;;11.10;99.90;;;;;;5049189;28;20050;-80
2021/10/11 07:43:34;;;;;;;0.90;0.82;;;11.10;99.90;;;;;;5055048;28;20812;-80
2021/10/11 07:46:04;;;;;;;0.90;0.85;;;11.10;99.90;;;;;;5032480;28;20110;-81
2021/10/11 07:48:30;;;;;;;4.65;1.02;;;11.20;99.90;;;;;;5031010;28;20036;-81
2021/10/11 07:50:56;;;;;;;0.55;0.55;;;11.20;99.90;;;;;;5069180;28;20044;-82
2021/10/11 07:53:22;;;;;;;;;;;11.30;99.90;;;;;;5047603;28;20055;-81
2021/10/11 07:55:48;;;;;;;0.88;0.88;;;11.30;99.90;;;;;;5040213;28;19916;-78
2021/10/11 07:58:13;;;;;;;0.57;0.57;;;11.30;99.90;;;;;;5047216;28;20048;-79
2021/10/11 08:00:39;;;;;;;1.38;1.20;;;11.40;99.90;;;;;;5035712;28;20051;-80
2021/10/11 08:03:06;;;;;;;4.72;1.27;;;11.40;99.90;;;;;;5049801;28;20048;-82
2021/10/11 08:05:31;;;;;;;0.80;0.80;;;11.50;99.90;;;;;;5048836;28;20048;-82
2021/10/11 08:07:57;;;;;;;3.35;0.80;;;11.60;99.90;;;;;;5068135;28;20043;-84
2021/10/11 08:10:23;;;;;;;0.50;0.50;;;11.60;99.90;;;;;;5041753;28;20044;-80
2021/10/11 08:12:48;;;;;;;0.93;0.90;;;11.60;99.90;;;;;;5050120;28;20119;-83
2021/10/11 08:15:16;;;;;;;;;;;11.80;99.90;;;;;;5056318;28;20037;-81
2021/10/11 08:17:42;;;;;;;1.02;0.90;;;11.80;99.90;;;;;;5062607;28;20006;-81
2021/10/11 08:20:09;;;;;;;0.73;0.73;;;11.90;99.90;;;;;;5061390;28;20477;-81
2021/10/11 08:22:35;;;;;;;1.58;0.93;;;12.00;99.90;;;;;;5056608;28;20051;-81
2021/10/11 08:25:02;;;;;;;0.65;0.65;;;12.10;99.90;;;;;;5049038;28;20045;-81
2021/10/11 08:27:29;;;;;;;2.08;1.40;;;12.20;99.90;;;;;;5056554;28;20079;-81
2021/10/11 08:29:54;;;;;;;1.30;0.93;;;12.30;99.90;;;;;;5046899;28;20267;-80
2021/10/11 08:32:25;;;;;;;0.80;0.80;;;12.40;99.90;;;;;;5063353;28;20174;-80
2021/10/11 08:34:52;;;;;;;0.63;0.57;;;12.50;99.90;;;;;;5037895;28;20060;-79
2021/10/11 08:37:18;;;;;;;2.03;1.30;;;12.60;99.90;;;;;;5065038;28;20404;-80
2021/10/11 08:39:45;;;;;;;;;;;12.70;99.90;;;;;;5062007;28;20052;-81
2021/10/11 08:42:11;;;;;;;;;;;12.70;99.90;;;;;;5051911;28;19963;-81
2021/10/11 08:44:37;;;;;;;1.17;1.08;;;12.80;99.90;;;;;;5049354;28;20008;-80
2021/10/11 08:47:03;;;;;;;1.63;1.52;;;12.90;99.90;;;;;;5050395;28;20870;-81
2021/10/11 08:49:30;;;;;;;1.75;0.98;;;13.00;99.90;;;;;;5045799;28;20037;-82
2021/10/11 08:51:56;;;;;;;0.60;0.60;;;13.00;99.90;;;;;;5049972;28;20142;-78
2021/10/11 08:54:22;;;;;;;1.00;0.93;;;13.00;99.90;;;;;;5067176;28;20048;-79
2021/10/11 08:56:47;;;;;;;0.95;0.95;;;12.80;99.90;;;;;;5035918;28;20043;-78
2021/10/11 08:59:13;;;;;;;0.98;0.88;;;12.80;99.90;;;;;;5063280;28;20048;-78
2021/10/11 09:01:39;;;;;;;0.80;0.80;;;12.80;99.90;;;;;;5041609;28;20166;-78
2021/10/11 09:04:18;;;;;;;0.50;0.50;;;12.80;99.90;;;;;;5069365;28;20054;-78
2021/10/11 09:07:03;;;;;;;0.50;0.50;;;12.70;99.90;;;;;;5054706;28;20724;-78
2021/10/11 09:09:29;;;;;;;2.30;0.75;;;12.80;99.90;;;;;;5052286;28;20032;-78
2021/10/11 09:11:55;;;;;;;4.05;1.23;;;12.80;99.90;;;;;;5054418;28;20432;-76
2021/10/11 09:14:22;;;;;;;0.85;0.75;;;12.70;99.90;;;;;;5051675;28;20048;-76
2021/10/11 09:17:04;;;;;;;1.33;0.88;;;12.70;99.90;;;;;;5051756;28;20398;-81
2021/10/11 09:19:36;;;;;;;0.90;0.77;;;12.70;99.90;;;;;;5054259;28;20044;-80
2021/10/11 09:22:05;;;;;;;1.55;1.33;;;12.70;99.90;;;;;;5053970;28;20048;-83
2021/10/11 09:24:31;;;;;;;1.88;0.90;;;12.80;99.90;;;;;;5065027;28;20098;-81
2021/10/11 09:26:59;;;;;;;7.00;1.38;;;12.90;99.90;;;;;;5041925;28;20053;-81
2021/10/11 09:29:37;;;;;;;1.33;1.23;;;12.90;99.90;;;;;;5047842;28;20496;-79
2021/10/11 09:32:08;;;;;;;0.90;0.82;;;13.10;99.90;;;;;;5057909;28;20040;-81
2021/10/11 09:34:35;;;;;;;2.97;0.85;;;13.20;99.90;;;;;;5049310;28;20106;-81
2021/10/11 09:37:04;;;;;;;1.27;0.68;;;13.30;99.90;;;;;;5067497;28;20052;-79
2021/10/11 09:39:32;;;;;;;8.70;1.10;;;13.60;99.90;;;;;;5067717;28;20122;-80
2021/10/11 09:41:59;;;;;;;1.67;1.00;;;13.80;99.90;;;;;;5066541;28;20041;-79
2021/10/11 09:44:25;;;;;;;6.32;1.15;;;14.00;99.90;;;;;;5028436;28;20033;-79
2021/10/11 09:46:57;;;;;;;0.40;0.40;;;14.30;99.90;;;;;;5050770;28;20076;-81
2021/10/11 09:49:27;;;;;;;0.52;0.52;;;14.50;99.90;;;;;;5050783;28;20049;-79
2021/10/11 09:51:53;;;;;;;0.95;0.63;;;14.70;99.90;;;;;;5058252;28;20486;-79
2021/10/11 09:54:20;;;;;;;0.57;0.57;;;14.90;99.90;;;;;;5048088;28;20071;-78
2021/10/11 09:56:47;;;;;;;0.68;0.55;;;15.00;99.90;;;;;;5057208;28;20094;-78
2021/10/11 09:59:13;;;;;;;0.95;0.88;;;15.00;99.90;;;;;;5053475;28;20458;-78
2021/10/11 10:01:40;;;;;;;;;;;15.00;99.90;;;;;;5056297;28;20045;-79
2021/10/11 10:04:06;;;;;;;0.60;0.60;;;14.90;99.90;;;;;;5068245;28;19920;-82
2021/10/11 10:06:33;;;;;;;5.25;1.55;;;14.90;99.90;;;;;;5056858;28;20060;-83
2021/10/11 10:09:04;;;;;;;5.00;0.95;;;14.90;99.90;;;;;;5038276;28;20086;-83
2021/10/11 10:11:32;;;;;;;6.07;0.80;;;14.90;99.90;;;;;;5071207;28;20104;-83
2021/10/11 10:13:58;;;;;;;1.23;1.13;;;14.90;99.90;;;;;;5071896;28;20051;-84
2021/10/11 10:16:23;;;;;;;10.13;0.93;;;14.80;99.90;;;;;;5048145;28;20393;-84
2021/10/11 10:18:49;;;;;;;0.50;0.50;;;14.80;99.90;;;;;;5053518;28;20048;-84
2021/10/11 10:21:16;;;;;;;0.68;0.68;;;14.70;99.90;;;;;;5043831;28;20140;-85
2021/10/11 10:23:44;;;;;;;1.42;1.00;;;14.70;99.90;;;;;;5059080;28;20045;-80
2021/10/11 10:26:12;;;;;;;1.92;0.93;;;14.70;99.90;;;;;;5074632;28;20040;-81
2021/10/11 10:28:45;;;;;;;0.50;0.50;;;14.70;99.90;;;;;;5045460;28;20174;-81
2021/10/11 10:31:23;;;;;;;0.43;0.43;;;14.70;99.90;;;;;;5057994;28;20051;-76
2021/10/11 10:33:49;;;;;;;0.30;0.30;;;14.60;99.90;;;;;;5062153;28;20041;-85
2021/10/11 10:36:27;;;;;;;0.30;0.30;;;14.60;99.90;;;;;;5040269;28;20045;-78
2021/10/11 10:39:13;;;;;;;0.50;0.50;;;14.50;99.90;;;;;;5048779;28;20057;-79
2021/10/11 10:41:43;;;;;;;0.65;0.65;;;14.50;99.90;;;;;;5059866;28;20080;-78
2021/10/11 10:44:18;;;;;;;0.75;0.73;;;14.50;99.90;;;;;;5067745;28;20397;-79
2021/10/11 10:46:54;;;;;;;2.22;0.88;;;14.50;99.90;;;;;;5059577;28;20040;-79
2021/10/11 10:49:35;;;;;;;0.50;0.50;;;14.50;99.90;;;;;;5070957;28;20559;-78
2021/10/11 10:52:08;;;;;;;1.30;0.73;;;14.50;99.90;;;;;;5062934;28;20432;-77
2021/10/11 10:54:39;;;;;;;3.83;0.88;;;14.50;99.90;;;;;;5052085;28;20116;-78
2021/10/11 10:57:07;;;;;;;1.30;0.60;;;14.50;99.90;;;;;;5051900;28;20495;-76
2021/10/11 10:59:33;;;;;;;0.68;0.50;;;14.50;99.90;;;;;;5055991;28;20050;-78
2021/10/11 11:04:52;;;;;;;0.30;0.30;;;14.60;99.90;;;;;;5072528;27;20416;-79
2021/10/11 11:07:26;;;;;;;2.88;0.75;;;14.80;99.90;;;;;;5053986;28;20365;-78
2021/10/11 11:09:51;;;;;;;1.17;1.08;;;15.00;99.90;;;;;;5066725;28;20533;-79
2021/10/11 11:12:28;;;;;;;0.75;0.70;;;15.10;99.90;;;;;;5047994;28;20033;-78
2021/10/11 11:14:53;;;;;;;7.60;1.23;;;15.20;99.90;;;;;;5046787;28;20151;-79
2021/10/11 11:17:28;;;;;;;1.38;0.70;;;15.30;99.90;;;;;;5051849;28;20043;-80
2021/10/11 11:19:54;;;;;;;4.95;1.08;;;15.30;99.90;;;;;;5037191;28;20045;-80
2021/10/11 11:22:33;;;;;;;3.50;0.63;;;15.40;99.90;;;;;;5027803;28;20035;-82
2021/10/11 11:25:06;;;;;;;1.48;0.77;;;15.50;99.90;;;;;;5052570;28;20036;-81
2021/10/11 11:27:39;;;;;;;2.28;1.08;;;15.60;99.90;;;;;;5037017;28;20044;-82
2021/10/11 11:30:15;;;;;;;1.63;0.88;;;15.70;99.90;;;;;;5072961;28;20056;-79
2021/10/11 11:32:49;;;;;;;0.50;0.50;;;15.50;99.90;;;;;;5062050;28;20045;-79
2021/10/11 11:35:36;;;;;;;2.10;1.02;;;15.20;99.90;;;;;;5055325;28;20538;-79
2021/10/11 11:38:05;;;;;;;0.80;0.77;;;15.00;99.90;;;;;;5051014;28;20045;-79
2021/10/11 11:41:01;;;;;;;2.95;0.70;;;14.70;99.90;;;;;;5042521;28;20514;-79
2021/10/11 11:43:32;;;;;;;3.53;0.70;;;14.50;99.90;;;;;;5044191;28;20052;-79
2021/10/11 11:45:59;;;;;;;0.95;0.75;;;14.40;99.90;;;;;;5036730;28;20056;-79
2021/10/11 11:48:30;;;;;;;2.30;1.33;;;14.30;99.90;;;;;;5062235;28;20118;-80
2021/10/11 11:50:59;;;;;;;1.17;0.60;;;14.20;99.90;;;;;;5043440;28;20094;-79
2021/10/11 11:53:26;;;;;;;1.42;1.38;;;14.10;99.90;;;;;;5051419;28;20060;-79
2021/10/11 11:55:54;;;;;;;3.35;0.90;;;14.20;99.90;;;;;;5055022;28;20049;-79
2021/10/11 11:58:24;;;;;;;1.02;0.73;;;14.20;99.90;;;;;;5058200;28;20468;-79
2021/10/11 12:00:52;;;;;;;1.25;0.80;;;14.40;99.90;;;;;;5058992;28;20051;-79
2021/10/11 12:03:20;;;;;;;3.25;0.77;;;14.60;99.90;;;;;;5059294;28;20491;-79
2021/10/11 12:05:54;;;;;;;2.40;0.68;;;14.70;99.90;;;;;;5053679;28;20067;-79
2021/10/11 12:08:20;;;;;;;0.60;0.60;;;14.40;99.90;;;;;;5074117;28;20033;-79
2021/10/11 12:11:06;;;;;;;3.58;0.70;;;14.10;99.90;;;;;;5061199;28;20103;-79
2021/10/11 12:13:38;;;;;;;0.73;0.73;;;13.90;99.90;;;;;;5058945;28;20479;-79
2021/10/11 12:16:06;;;;;;;0.40;0.40;;;13.80;99.90;;;;;;5051761;28;20123;-80
2021/10/11 12:18:39;;;;;;;0.45;0.45;;;13.80;99.90;;;;;;5029966;28;20049;-79
2021/10/11 12:21:06;;;;;;;0.50;0.50;;;13.90;99.90;;;;;;5048826;28;20045;-79
2021/10/11 12:23:37;;;;;;;0.60;0.60;;;14.00;99.90;;;;;;5027360;28;20045;-80
2021/10/11 12:26:04;;;;;;;0.40;0.40;;;14.20;99.90;;;;;;5044206;28;20051;-79
2021/10/11 12:28:30;;;;;;;0.70;0.68;;;14.30;99.90;;;;;;5013585;28;20029;-79
2021/10/11 12:31:02;;;;;;;0.88;0.88;;;14.30;99.90;;;;;;5035729;28;20048;-79
2021/10/11 12:33:39;;;;;;;0.40;0.40;;;14.40;99.90;;;;;;5023830;28;20049;-79
2021/10/11 12:36:06;;;;;;;;;;;14.50;99.90;;;;;;5045944;28;20113;-79
2021/10/11 12:38:40;;;;;;;1.10;0.82;;;14.60;99.90;;;;;;5043041;28;19927;-79
2021/10/11 12:41:12;;;;;;;6.53;1.48;;;14.70;99.90;;;;;;5041065;28;20029;-79
2021/10/11 12:43:39;;;;;;;0.60;0.60;;;14.60;99.90;;;;;;5032184;28;20507;-79
2021/10/11 12:46:11;;;;;;;7.03;1.52;;;14.50;99.90;;;;;;5051689;28;20049;-80
2021/10/11 12:48:55;;;;;;;8.40;0.95;;;14.30;99.90;;;;;;5044210;28;20041;-79
2021/10/11 12:51:33;;;;;;;0.43;0.43;;;14.20;99.90;;;;;;5027839;28;20037;-80
2021/10/11 12:54:09;;;;;;;0.88;0.82;;;14.30;99.90;;;;;;5031047;28;20045;-79
2021/10/11 12:56:37;;;;;;;1.40;0.50;;;14.50;99.90;;;;;;5015446;28;20053;-80
2021/10/11 12:59:08;;;;;;;4.85;0.65;;;14.70;99.90;;;;;;5036573;28;20076;-80